LCLK/LCA METAR and TAF weather

Enter ICAO airport designator
Station Type Date Time Source
LCLK METAR 2021/04/18 03:00 UTC NOAA

LCLK 180300Z 31006KT CAVOK 21/04 Q1015 NOSIG


Station Type Date Time Source
LCLK Decoded METAR 2021/04/18 03:00 UTC NOAA

Larnaca Airport, Cyprus (LCLK) 34-53N 033-38E 2M
Apr 17, 2021 - 11:00 PM EDT / 2021.04.18 0300 UTC
Wind: from the NW (310 degrees) at 7 MPH (6 KT):0
Visibility: greater than 7 mile(s):0
Temperature: 69 F (21 C)
Dew Point: 39 F (4 C)
Relative Humidity: 32%
Pressure (altimeter): 29.97 in. Hg (1015 hPa)
ob: LCLK 180300Z 31006KT CAVOK 21/04 Q1015 NOSIG
cycle: 3

Station Type Date Time Source
LCLK TAF 2021/04/17 18:30 UTC NOAA

TAF LCLK 171730Z 1718/1818 33007KT CAVOK PROB30 1720/1818 5000 DU
BECMG 1807/1811 13010KT

Example: see airport list